Scandia, Kansas
Current Conditions -  °F | °C
As of 7:55 AM on Thursday 30 Oct 2014 (Local Time) from KCNK Reporting Station
Clear Clear  
Wind Chill: 37°   Ceiling: Unl
Heat Index: 43°   Visibility: 10mi
Dew Point: 37°   Wind: 10mph
Humidity: 80%   Direction: 340°NNW
Pressure: 30.08"   Gusts: NA
Location:  39.79°N, 97.78°W
Report Text: KCNK 301255Z AUTO 34009KT 10SM CLR 06/03 A3008 RMK AO2 SLP187 T00610028
Loading
Personal Weather Stations






























Interactive Weather Map
Tropical Storm Tracking
New forecast layout! Learn more

10-Day Weather Forecast

Advertisements
Track Severe Weather on mobile